Time;durP1;ratioP1;P1;durP2;ratioP2;P2;SDS_P1;SDS_P2;PMS_P1;PMS_P2;Temp;Humidity;BMP_temperature;BMP_pressure;BME280_temperature;BME280_humidity;BME280_pressure;Samples;Min_cycle;Max_cycle;Signal;HPM_P1;HPM_P2
2022/01/06 00:02:24;;;;;;;26.48;5.97;;;;;;;2.12;100.00;101206.19;4965979;28;20044;-78
2022/01/06 00:04:50;;;;;;;13.30;4.95;;;;;;;2.10;100.00;101203.72;4985779;28;20030;-78
2022/01/06 00:07:16;;;;;;;31.75;4.78;;;;;;;2.10;100.00;101211.38;4972054;28;20096;-78
2022/01/06 00:09:42;;;;;;;26.75;4.13;;;;;;;2.09;100.00;101216.59;4987429;28;20057;-78
2022/01/06 00:12:11;;;;;;;31.27;5.32;;;;;;;2.07;100.00;101223.53;4971164;28;20050;-78
2022/01/06 00:14:53;;;;;;;28.45;5.10;;;;;;;2.07;100.00;101220.97;4989980;28;20053;-78
2022/01/06 00:25:30;;;;;;;31.75;4.38;;;;;;;1.98;100.00;101231.75;4988215;28;20464;-78
2022/01/06 00:27:55;;;;;;;24.90;3.70;;;;;;;1.98;100.00;101235.16;4970066;28;20030;-78
2022/01/06 00:30:20;;;;;;;25.70;4.07;;;;;;;1.94;100.00;101231.09;4978889;28;20041;-78
2022/01/06 00:32:46;;;;;;;17.63;3.83;;;;;;;1.92;100.00;101232.91;4987317;28;20061;-77
2022/01/06 00:35:12;;;;;;;35.10;5.28;;;;;;;1.91;100.00;101241.53;4983864;28;20037;-78
2022/01/06 00:37:37;;;;;;;30.85;3.80;;;;;;;1.90;100.00;101243.28;4966317;28;20123;-78
2022/01/06 00:40:03;;;;;;;26.08;3.92;;;;;;;1.88;100.00;101245.06;4988219;28;20026;-78
2022/01/06 00:42:29;;;;;;;25.95;3.97;;;;;;;1.89;100.00;101251.84;4987442;28;20027;-78
2022/01/06 00:44:54;;;;;;;27.95;5.97;;;;;;;1.90;100.00;101244.97;4971006;28;20084;-78
2022/01/06 00:47:20;;;;;;;16.80;3.33;;;;;;;1.91;100.00;101252.56;4986508;28;20046;-78
2022/01/06 00:49:47;;;;;;;33.70;4.85;;;;;;;1.93;100.00;101255.03;4971541;28;20026;-78
2022/01/06 00:52:12;;;;;;;27.40;4.10;;;;;;;1.93;100.00;101255.88;4987116;28;20099;-78
2022/01/06 00:54:38;;;;;;;24.05;3.85;;;;;;;1.90;100.00;101250.09;4989932;28;20501;-78
2022/01/06 00:57:04;;;;;;;22.45;3.58;;;;;;;1.89;100.00;101251.03;4987591;28;20535;-78
2022/01/06 00:59:30;;;;;;;24.58;3.45;;;;;;;1.90;100.00;101265.44;4972571;28;20513;-78
2022/01/06 01:01:56;;;;;;;34.15;3.33;;;;;;;1.86;100.00;101258.88;4986528;28;20092;-78
2022/01/06 01:04:21;;;;;;;30.23;3.72;;;;;;;1.83;100.00;101261.59;4986476;28;20042;-78
2022/01/06 01:06:48;;;;;;;20.23;3.88;;;;;;;1.83;100.00;101267.53;4971542;28;20042;-78
2022/01/06 01:09:13;;;;;;;19.20;2.95;;;;;;;1.85;100.00;101258.06;4982754;28;20042;-78
2022/01/06 01:11:39;;;;;;;28.85;3.90;;;;;;;1.90;100.00;101265.44;5006077;28;20042;-78
2022/01/06 01:14:19;;;;;;;23.50;2.90;;;;;;;1.85;100.00;101263.16;4987207;28;20406;-78
2022/01/06 01:16:58;;;;;;;19.55;2.97;;;;;;;1.80;100.00;101272.00;4983937;28;20519;-78
2022/01/06 01:19:24;;;;;;;31.45;3.40;;;;;;;1.76;100.00;101268.81;5002400;28;20039;-78
2022/01/06 01:21:50;;;;;;;25.58;3.05;;;;;;;1.77;100.00;101275.53;5006845;28;20038;-78
2022/01/06 01:24:16;;;;;;;35.97;3.38;;;;;;;1.75;100.00;101268.00;4986375;28;20069;-78
2022/01/06 01:26:42;;;;;;;28.30;4.10;;;;;;;1.71;100.00;101268.22;4986554;28;20035;-78
2022/01/06 01:29:15;;;;;;;21.73;4.85;;;;;;;1.68;100.00;101278.66;4992413;28;20034;-77
2022/01/06 01:31:48;;;;;;;22.17;3.40;;;;;;;1.63;100.00;101271.22;4986203;28;20437;-78
2022/01/06 01:34:15;;;;;;;26.08;3.42;;;;;;;1.64;100.00;101272.03;4975074;28;20045;-78
2022/01/06 01:36:43;;;;;;;32.97;4.32;;;;;;;1.62;100.00;101276.41;5002509;28;20267;-78
2022/01/06 01:39:09;;;;;;;34.55;3.33;;;;;;;1.58;100.00;101265.53;4988156;28;20041;-78
2022/01/06 01:41:34;;;;;;;25.45;3.63;;;;;;;1.62;100.00;101273.88;4987430;28;20537;-78
2022/01/06 01:44:00;;;;;;;22.27;3.50;;;;;;;1.61;100.00;101283.28;4970805;28;20027;-78
2022/01/06 01:46:30;;;;;;;27.27;3.90;;;;;;;1.58;100.00;101275.75;4992086;28;20038;-78
2022/01/06 01:51:58;;;;;;;22.75;3.40;;;;;;;1.59;100.00;101289.38;4959127;28;20117;-78
2022/01/06 01:54:24;;;;;;;23.42;3.45;;;;;;;1.59;100.00;101290.22;4984355;28;20047;-78
2022/01/06 01:56:51;;;;;;;27.63;3.17;;;;;;;1.54;100.00;101287.06;4974787;28;20022;-78
2022/01/06 01:59:16;;;;;;;24.10;3.33;;;;;;;1.50;100.00;101293.28;4973804;28;20120;-78
2022/01/06 02:01:42;;;;;;;29.65;3.03;;;;;;;1.51;100.00;101294.94;4993164;28;20037;-78
2022/01/06 02:04:08;;;;;;;32.47;4.07;;;;;;;1.49;100.00;101304.44;4991574;28;20038;-78
2022/01/06 02:06:33;;;;;;;24.40;2.85;;;;;;;1.45;100.00;101310.59;4990552;28;20504;-78
2022/01/06 02:08:59;;;;;;;28.70;3.88;;;;;;;1.46;100.00;101302.03;4989000;28;20061;-78
2022/01/06 02:11:25;;;;;;;26.75;3.45;;;;;;;1.45;100.00;101308.88;4996245;28;20457;-78
2022/01/06 02:13:53;;;;;;;14.52;2.55;;;;;;;1.47;100.00;101303.66;4968486;28;20035;-78
2022/01/06 02:16:25;;;;;;;21.77;3.55;;;;;;;1.48;100.00;101311.25;4976529;28;20034;-78
2022/01/06 02:18:52;;;;;;;28.67;3.88;;;;;;;1.45;100.00;101310.59;4990936;28;20109;-78
2022/01/06 02:21:19;;;;;;;20.40;2.95;;;;;;;1.44;100.00;101314.06;4989485;28;20026;-78
2022/01/06 02:23:44;;;;;;;23.98;3.10;;;;;;;1.41;100.00;101306.56;4991636;28;20066;-78
2022/01/06 02:26:11;;;;;;;16.23;3.13;;;;;;;1.35;100.00;101311.09;4973911;28;20038;-78
2022/01/06 02:28:37;;;;;;;22.70;3.22;;;;;;;1.35;100.00;101316.19;4990085;28;20037;-78
2022/01/06 02:31:03;;;;;;;21.05;3.58;;;;;;;1.30;100.00;101314.81;4986304;28;20117;-78
2022/01/06 02:33:28;;;;;;;27.58;3.50;;;;;;;1.29;100.00;101318.28;4988170;28;20161;-78
2022/01/06 02:35:55;;;;;;;26.08;2.88;;;;;;;1.26;100.00;101319.28;5004506;28;20409;-78
2022/01/06 02:38:23;;;;;;;26.80;3.30;;;;;;;1.28;100.00;101327.69;4989333;28;20067;-78
2022/01/06 02:40:48;;;;;;;25.13;3.72;;;;;;;1.28;100.00;101329.41;5005805;28;20096;-78
2022/01/06 02:43:17;;;;;;;28.35;3.78;;;;;;;1.28;100.00;101334.50;4988559;28;20034;-78
2022/01/06 02:45:45;;;;;;;28.42;4.00;;;;;;;1.27;100.00;101333.69;5015179;23;20053;-67
2022/01/06 02:48:11;;;;;;;27.30;4.95;;;;;;;1.28;100.00;101335.34;5010340;28;20057;-66
2022/01/06 02:50:39;;;;;;;24.60;3.45;;;;;;;1.28;100.00;101337.06;4974123;28;20085;-66
2022/01/06 02:53:07;;;;;;;36.38;4.57;;;;;;;1.24;100.00;101338.13;4978263;28;20030;-67
2022/01/06 02:55:34;;;;;;;29.10;3.00;;;;;;;1.25;100.00;101343.16;5013293;28;20040;-67
2022/01/06 02:58:00;;;;;;;20.85;3.75;;;;;;;1.23;100.00;101334.75;5003011;28;20096;-67
2022/01/06 03:00:26;;;;;;;17.27;3.30;;;;;;;1.20;100.00;101334.91;4991871;28;20038;-66
2022/01/06 03:02:52;;;;;;;20.13;3.42;;;;;;;1.22;100.00;101329.72;5010141;28;20032;-67
2022/01/06 03:05:18;;;;;;;21.08;3.60;;;;;;;1.21;100.00;101341.69;4999758;28;20405;-67
2022/01/06 03:07:46;;;;;;;23.27;3.67;;;;;;;1.19;100.00;101335.84;5007864;28;20044;-67
2022/01/06 03:10:15;;;;;;;24.35;3.78;;;;;;;1.17;100.00;101340.22;5013280;28;20029;-67
2022/01/06 03:12:43;;;;;;;25.85;3.78;;;;;;;1.12;100.00;101347.28;5008799;28;20034;-66
2022/01/06 03:15:18;;;;;;;22.42;4.38;;;;;;;1.08;100.00;101350.91;5013686;28;20128;-67
2022/01/06 03:17:47;;;;;;;29.35;4.00;;;;;;;1.05;100.00;101348.50;5008809;28;20113;-67
2022/01/06 03:20:15;;;;;;;25.00;4.80;;;;;;;1.01;100.00;101349.59;5009374;28;20630;-67
2022/01/06 03:22:41;;;;;;;33.17;5.25;;;;;;;1.00;100.00;101347.91;5010201;28;20041;-66
2022/01/06 03:25:09;;;;;;;27.58;3.17;;;;;;;0.98;100.00;101345.47;4990085;28;20015;-67
2022/01/06 03:27:35;;;;;;;31.95;4.97;;;;;;;0.96;100.00;101354.91;4992724;28;20025;-67
2022/01/06 03:30:03;;;;;;;20.67;4.07;;;;;;;0.97;100.00;101357.41;5008927;28;20030;-66
2022/01/06 03:32:29;;;;;;;27.50;3.55;;;;;;;0.94;100.00;101354.19;4994395;28;20034;-67
2022/01/06 03:34:55;;;;;;;18.77;3.42;;;;;;;0.92;100.00;101359.38;5006501;28;20111;-66
2022/01/06 03:37:21;;;;;;;28.13;4.25;;;;;;;0.93;100.00;101358.47;5008347;28;20025;-66
2022/01/06 03:39:46;;;;;;;42.15;6.70;;;;;;;0.90;100.00;101358.63;4991672;28;20066;-67
2022/01/06 03:42:12;;;;;;;22.60;4.05;;;;;;;0.88;100.00;101362.16;5006385;28;20030;-66
2022/01/06 03:44:38;;;;;;;23.42;4.05;;;;;;;0.87;100.00;101366.44;4981134;28;20567;-66
2022/01/06 03:47:04;;;;;;;32.60;3.83;;;;;;;0.86;100.00;101369.09;4989875;28;20491;-66
2022/01/06 03:49:30;;;;;;;24.85;3.72;;;;;;;0.83;100.00;101376.88;5007819;28;20408;-67
2022/01/06 03:51:56;;;;;;;24.00;3.63;;;;;;;0.83;100.00;101377.75;5007528;28;20030;-67
2022/01/06 03:54:22;;;;;;;16.70;4.18;;;;;;;0.89;100.00;101384.25;5006573;28;20040;-66
2022/01/06 03:56:48;;;;;;;26.65;5.47;;;;;;;0.87;100.00;101386.88;5004630;28;20028;-66
2022/01/06 03:59:18;;;;;;;23.63;4.40;;;;;;;0.87;100.00;101386.06;5007742;28;20443;-67
2022/01/06 04:01:44;;;;;;;23.30;4.00;;;;;;;0.87;100.00;101384.34;5007684;28;20037;-67
2022/01/06 04:04:11;;;;;;;26.52;6.88;;;;;;;0.89;100.00;101394.47;5004160;28;20706;-67
2022/01/06 04:06:37;;;;;;;24.50;4.53;;;;;;;0.90;100.00;101394.38;5008130;28;20120;-67
2022/01/06 04:09:03;;;;;;;26.55;4.70;;;;;;;0.92;100.00;101394.28;5001394;28;20574;-66
2022/01/06 04:11:29;;;;;;;32.70;6.15;;;;;;;0.93;100.00;101391.66;5010674;28;20041;-66
2022/01/06 04:13:55;;;;;;;65.25;15.98;;;;;;;0.96;100.00;101398.34;5008038;28;20057;-67
2022/01/06 04:16:21;;;;;;;41.38;10.30;;;;;;;0.97;100.00;101400.81;5006463;28;20068;-67
2022/01/06 04:18:47;;;;;;;40.35;9.13;;;;;;;1.00;100.00;101404.97;5007057;28;20022;-67
2022/01/06 04:21:13;;;;;;;31.27;7.38;;;;;;;1.04;100.00;101398.78;4990417;28;20026;-67
2022/01/06 04:23:39;;;;;;;50.42;14.65;;;;;;;1.04;100.00;101403.06;4995882;28;20049;-66
2022/01/06 04:26:05;;;;;;;48.92;15.20;;;;;;;1.04;100.00;101415.84;5006945;28;20069;-66
2022/01/06 04:28:30;;;;;;;74.05;27.45;;;;;;;1.03;100.00;101406.53;5006022;28;20042;-67
2022/01/06 04:30:56;;;;;;;34.95;10.90;;;;;;;1.03;100.00;101404.78;5006570;28;20122;-67
2022/01/06 04:33:22;;;;;;;61.50;20.25;;;;;;;1.02;100.00;101409.97;5007155;28;20125;-67
2022/01/06 04:35:48;;;;;;;36.35;9.85;;;;;;;0.98;100.00;101404.22;5007260;28;20467;-67
2022/01/06 04:38:13;;;;;;;25.38;5.20;;;;;;;0.99;100.00;101407.59;5009161;28;20040;-67
2022/01/06 04:40:39;;;;;;;27.63;4.07;;;;;;;0.98;100.00;101411.88;4993357;28;20041;-66
2022/01/06 04:43:05;;;;;;;21.75;5.15;;;;;;;0.95;100.00;101417.94;4997131;28;20041;-67
2022/01/06 04:45:31;;;;;;;37.55;5.95;;;;;;;0.94;100.00;101413.75;4997022;28;20184;-67
2022/01/06 04:47:57;;;;;;;27.63;5.82;;;;;;;0.95;100.00;101427.34;5007335;28;20077;-67
2022/01/06 04:50:22;;;;;;;26.90;3.70;;;;;;;0.92;100.00;101437.72;5004260;28;20120;-67
2022/01/06 04:52:48;;;;;;;21.33;3.70;;;;;;;0.88;100.00;101437.03;5007947;28;20029;-67
2022/01/06 04:55:14;;;;;;;24.77;5.00;;;;;;;0.84;100.00;101439.84;5007907;28;20025;-67
2022/01/06 04:57:40;;;;;;;37.55;5.60;;;;;;;0.83;100.00;101444.13;5007992;28;20033;-67
2022/01/06 05:00:07;;;;;;;23.65;4.75;;;;;;;0.83;100.00;101435.63;5006772;28;20069;-67
2022/01/06 05:02:32;;;;;;;25.95;4.82;;;;;;;0.80;100.00;101440.91;5007890;28;20129;-67
2022/01/06 05:04:58;;;;;;;22.30;4.18;;;;;;;0.77;100.00;101444.41;5006445;28;20547;-67
2022/01/06 05:07:24;;;;;;;21.00;3.40;;;;;;;0.73;100.00;101440.38;5006392;28;20042;-66
2022/01/06 05:09:49;;;;;;;21.38;5.57;;;;;;;0.72;100.00;101443.84;5008329;28;20037;-67
2022/01/06 05:12:15;;;;;;;34.42;5.18;;;;;;;0.69;100.00;101443.97;5008513;28;20581;-67
2022/01/06 05:14:42;;;;;;;26.48;4.93;;;;;;;0.66;100.00;101451.78;5006590;28;20034;-67
2022/01/06 05:17:08;;;;;;;20.00;4.10;;;;;;;0.63;100.00;101454.50;4992146;28;20127;-67
2022/01/06 05:19:34;;;;;;;31.33;4.68;;;;;;;0.63;100.00;101457.06;4995438;28;20049;-66
2022/01/06 05:22:00;;;;;;;26.25;4.90;;;;;;;0.61;100.00;101463.97;5012067;28;20034;-66
2022/01/06 05:24:26;;;;;;;19.27;4.05;;;;;;;0.61;100.00;101458.84;5011468;28;20038;-66
2022/01/06 05:26:56;;;;;;;19.13;4.70;;;;;;;0.58;100.00;101458.13;4994444;28;20030;-67
2022/01/06 05:29:23;;;;;;;21.90;4.82;;;;;;;0.54;100.00;101454.03;5009773;28;20057;-66
2022/01/06 05:31:49;;;;;;;26.95;4.22;;;;;;;0.54;100.00;101461.69;5008419;28;20081;-66
2022/01/06 05:34:15;;;;;;;20.73;5.10;;;;;;;0.47;100.00;101460.38;5011227;28;20037;-67
2022/01/06 05:36:41;;;;;;;38.38;5.00;;;;;;;0.46;100.00;101461.25;5010685;28;20536;-67
2022/01/06 05:39:07;;;;;;;26.63;4.50;;;;;;;0.43;100.00;101463.13;5013433;28;20656;-66
2022/01/06 05:41:33;;;;;;;30.75;5.35;;;;;;;0.41;100.00;101462.38;5010608;28;20034;-67
2022/01/06 05:43:59;;;;;;;21.45;4.85;;;;;;;0.36;100.00;101476.19;5011551;28;20559;-67
2022/01/06 05:46:25;;;;;;;28.85;5.55;;;;;;;0.35;100.00;101474.50;4994235;28;20396;-67
2022/01/06 05:48:51;;;;;;;28.60;5.18;;;;;;;0.36;100.00;101483.03;5010290;28;20554;-66
2022/01/06 05:51:17;;;;;;;27.27;5.55;;;;;;;0.34;100.00;101487.34;5012542;28;20042;-66
2022/01/06 05:53:42;;;;;;;26.95;6.22;;;;;;;0.33;100.00;101483.16;5009538;28;20041;-66
2022/01/06 05:56:09;;;;;;;34.80;7.30;;;;;;;0.35;100.00;101489.81;5010281;28;20026;-67
2022/01/06 05:58:36;;;;;;;28.15;7.63;;;;;;;0.30;100.00;101490.94;5008011;28;20029;-66
2022/01/06 06:01:02;;;;;;;32.33;5.95;;;;;;;0.29;100.00;101497.78;5018216;28;20492;-67
2022/01/06 06:03:28;;;;;;;28.55;6.93;;;;;;;0.29;100.00;101505.44;5010379;28;20037;-66
2022/01/06 06:05:56;;;;;;;28.52;6.55;;;;;;;0.23;100.00;101512.53;4993058;28;20084;-67
2022/01/06 06:08:22;;;;;;;29.02;5.75;;;;;;;0.23;100.00;101510.84;4986741;28;20034;-66
2022/01/06 06:10:48;;;;;;;36.40;5.55;;;;;;;0.19;100.00;101510.16;5009801;28;20030;-67
2022/01/06 06:13:13;;;;;;;26.65;5.00;;;;;;;0.20;100.00;101510.97;5006211;28;20030;-66
2022/01/06 06:15:39;;;;;;;33.70;7.72;;;;;;;0.17;100.00;101524.69;5008635;28;20030;-66
2022/01/06 06:18:06;;;;;;;34.78;7.70;;;;;;;0.18;100.00;101528.88;5009588;28;20401;-67
2022/01/06 06:20:32;;;;;;;35.50;9.02;;;;;;;0.17;100.00;101527.25;5008940;28;20026;-67
2022/01/06 06:22:58;;;;;;;34.67;10.07;;;;;;;0.16;100.00;101523.03;5019127;28;20111;-67
2022/01/06 06:25:25;;;;;;;58.60;18.20;;;;;;;0.14;100.00;101522.28;5007729;28;20044;-66
2022/01/06 06:27:50;;;;;;;39.28;12.13;;;;;;;0.14;100.00;101521.47;4994942;28;20037;-67
2022/01/06 06:30:17;;;;;;;28.35;8.15;;;;;;;0.13;100.00;101530.00;4990227;28;20084;-66
2022/01/06 06:32:43;;;;;;;30.55;6.80;;;;;;;0.10;100.00;101535.25;4991387;28;20362;-67
2022/01/06 06:35:09;;;;;;;29.90;5.95;;;;;;;0.09;100.00;101533.59;5009321;28;20134;-67
2022/01/06 06:37:35;;;;;;;36.25;5.95;;;;;;;0.06;100.00;101539.66;5007849;28;20068;-66
2022/01/06 06:40:00;;;;;;;24.45;5.13;;;;;;;0.06;100.00;101544.78;4991366;28;20033;-67
2022/01/06 06:42:28;;;;;;;31.65;5.93;;;;;;;0.06;100.00;101538.81;5008737;28;20042;-67
2022/01/06 06:44:54;;;;;;;35.38;5.97;;;;;;;0.07;100.00;101545.59;4989882;28;20068;-66
2022/01/06 06:47:20;;;;;;;29.08;5.55;;;;;;;0.07;100.00;101545.59;5008432;28;20045;-66
2022/01/06 06:49:46;;;;;;;32.22;6.35;;;;;;;0.05;100.00;101552.47;5008974;28;20117;-66
2022/01/06 06:52:12;;;;;;;25.88;6.47;;;;;;;0.06;100.00;101552.41;4988698;28;20139;-67
2022/01/06 06:54:38;;;;;;;31.13;5.28;;;;;;;0.07;100.00;101555.78;4988723;28;20088;-66
2022/01/06 06:57:04;;;;;;;25.17;5.05;;;;;;;0.08;100.00;101563.38;5007928;28;20026;-65
2022/01/06 06:59:29;;;;;;;25.63;4.85;;;;;;;0.07;100.00;101561.72;5008226;28;20117;-66
2022/01/06 07:01:55;;;;;;;37.15;5.88;;;;;;;0.07;100.00;101573.63;5007614;28;20805;-66
2022/01/06 07:04:21;;;;;;;32.00;6.07;;;;;;;0.05;100.00;101575.44;4991852;28;20495;-67
2022/01/06 07:06:47;;;;;;;27.13;5.15;;;;;;;0.04;100.00;101582.28;5007493;28;20045;-66
2022/01/06 07:09:13;;;;;;;35.60;6.80;;;;;;;0.04;100.00;101573.78;5004049;28;20109;-67
2022/01/06 07:11:38;;;;;;;30.23;6.00;;;;;;;0.03;100.00;101578.06;4991668;28;20060;-67
2022/01/06 07:14:04;;;;;;;27.83;5.95;;;;;;;0.04;100.00;101581.41;5005730;28;20034;-66
2022/01/06 07:16:30;;;;;;;38.40;6.97;;;;;;;0.03;100.00;101588.25;5008271;28;20080;-66
2022/01/06 07:18:55;;;;;;;40.97;5.60;;;;;;;0.04;100.00;101596.72;5007985;28;20073;-67
2022/01/06 07:21:21;;;;;;;24.75;5.22;;;;;;;0.04;100.00;101589.91;5008662;28;20064;-66
2022/01/06 07:23:47;;;;;;;27.48;5.78;;;;;;;0.03;100.00;101589.97;5006629;28;20500;-66
2022/01/06 07:26:12;;;;;;;26.80;6.07;;;;;;;0.03;100.00;101595.09;5007505;28;20029;-67
2022/01/06 07:28:38;;;;;;;29.45;5.53;;;;;;;0.02;100.00;101601.06;5004817;28;20611;-66
2022/01/06 07:31:04;;;;;;;24.02;5.70;;;;;;;0.02;100.00;101599.38;5009357;28;20507;-66
2022/01/06 07:33:31;;;;;;;36.75;7.22;;;;;;;0.03;100.00;101600.19;5004542;28;20042;-67
2022/01/06 07:35:57;;;;;;;35.92;7.45;;;;;;;0.06;100.00;101600.88;5007834;28;20028;-66
2022/01/06 07:38:23;;;;;;;29.33;5.88;;;;;;;0.06;100.00;101605.13;4992866;28;20029;-66
2022/01/06 07:40:49;;;;;;;35.47;6.50;;;;;;;0.05;100.00;101604.31;4991515;28;20061;-66
2022/01/06 07:43:14;;;;;;;34.60;6.28;;;;;;;0.08;100.00;101608.47;5008871;28;20029;-66
2022/01/06 07:45:40;;;;;;;21.83;5.60;;;;;;;0.08;100.00;101623.78;4990461;28;20483;-68
2022/01/06 07:48:15;;;;;;;31.58;7.03;;;;;;;0.08;100.00;101619.50;5006707;28;20038;-67
2022/01/06 07:50:42;;;;;;;34.50;9.50;;;;;;;0.13;100.00;101632.03;5006557;28;20061;-66
2022/01/06 07:53:08;;;;;;;30.83;7.93;;;;;;;0.15;100.00;101636.19;5008321;28;20534;-67
2022/01/06 07:55:33;;;;;;;36.15;7.20;;;;;;;0.17;100.00;101643.75;5007731;28;20034;-66
2022/01/06 07:57:59;;;;;;;34.10;7.38;;;;;;;0.18;100.00;101651.34;4989992;28;20025;-67
2022/01/06 08:00:25;;;;;;;30.35;8.10;;;;;;;0.18;100.00;101653.88;4988954;28;20769;-67
2022/01/06 08:02:51;;;;;;;39.92;7.97;;;;;;;0.21;100.00;101654.63;4989105;28;20274;-67
2022/01/06 08:05:20;;;;;;;40.47;7.68;;;;;;;0.25;100.00;101656.19;4987741;28;20128;-66
2022/01/06 08:07:46;;;;;;;32.38;7.53;;;;;;;0.22;100.00;101656.31;4990109;28;20129;-66
2022/01/06 08:10:11;;;;;;;31.83;7.88;;;;;;;0.21;100.00;101664.84;5009195;28;20156;-66
2022/01/06 08:12:38;;;;;;;30.08;8.13;;;;;;;0.18;100.00;101656.44;5008127;28;20028;-67
2022/01/06 08:15:04;;;;;;;35.58;9.50;;;;;;;0.22;100.00;101651.22;4990899;28;20080;-66
2022/01/06 08:17:30;;;;;;;30.02;8.95;;;;;;;0.23;100.00;101658.81;5001604;28;20037;-67
2022/01/06 08:19:56;;;;;;;40.17;9.50;;;;;;;0.26;100.00;101662.94;5007041;28;20062;-67
2022/01/06 08:22:21;;;;;;;36.97;8.55;;;;;;;0.30;100.00;101662.75;5003915;28;20508;-66
2022/01/06 08:24:47;;;;;;;40.38;8.90;;;;;;;0.33;100.00;101659.22;5007603;28;20080;-66
2022/01/06 08:27:13;;;;;;;32.75;8.10;;;;;;;0.36;100.00;101662.47;5007133;28;20088;-67
2022/01/06 08:29:40;;;;;;;31.08;8.23;;;;;;;0.37;100.00;101666.66;5008009;28;20082;-67
2022/01/06 08:32:06;;;;;;;31.70;8.15;;;;;;;0.38;100.00;101670.03;5004023;28;20042;-66
2022/01/06 08:34:33;;;;;;;38.42;10.35;;;;;;;0.42;100.00;101675.84;5004801;28;20026;-67
2022/01/06 08:36:59;;;;;;;44.67;9.70;;;;;;;0.44;100.00;101677.41;4989505;28;20636;-67
2022/01/06 08:39:25;;;;;;;46.22;11.05;;;;;;;0.48;100.00;101683.22;5007968;28;20088;-67
2022/01/06 08:41:51;;;;;;;41.67;9.73;;;;;;;0.53;100.00;101679.56;4990230;28;20112;-66
2022/01/06 08:44:17;;;;;;;37.35;10.85;;;;;;;0.59;100.00;101691.22;4989143;28;20045;-67
2022/01/06 08:46:42;;;;;;;35.15;9.73;;;;;;;0.62;100.00;101690.25;4988212;28;20033;-67
2022/01/06 08:49:11;;;;;;;48.90;12.27;;;;;;;0.67;100.00;101694.25;5006042;28;20037;-67
2022/01/06 08:51:39;;;;;;;42.88;13.38;;;;;;;0.73;100.00;101688.84;5004870;28;20030;-67
2022/01/06 08:54:06;;;;;;;42.15;12.38;;;;;;;0.81;100.00;101687.66;4974009;28;20030;-67
2022/01/06 08:56:33;;;;;;;45.80;13.70;;;;;;;0.83;100.00;101689.28;4988502;28;20026;-67
2022/01/06 08:58:59;;;;;;;46.63;13.73;;;;;;;0.89;100.00;101693.28;5006662;28;20040;-67
2022/01/06 09:01:24;;;;;;;49.70;15.75;;;;;;;0.92;100.00;101693.94;4989651;28;20132;-68
2022/01/06 09:03:50;;;;;;;45.33;13.00;;;;;;;0.96;100.00;101700.56;5011495;28;20044;-67
2022/01/06 09:06:16;;;;;;;33.40;13.50;;;;;;;0.99;100.00;101693.66;4991400;28;20034;-67
2022/01/06 09:08:41;;;;;;;46.80;16.88;;;;;;;1.01;100.00;101696.97;5005687;28;20412;-67
2022/01/06 09:11:07;;;;;;;46.60;15.55;;;;;;;1.01;100.00;101699.53;4990435;28;20050;-67
2022/01/06 09:13:33;;;;;;;47.83;15.20;;;;;;;1.04;100.00;101702.75;5007961;28;20511;-67
2022/01/06 09:15:59;;;;;;;43.10;13.85;;;;;;;1.07;100.00;101701.78;5005523;28;20053;-68
2022/01/06 09:18:24;;;;;;;49.22;16.45;;;;;;;1.13;100.00;101702.34;5004753;28;20030;-67
2022/01/06 09:20:50;;;;;;;44.08;15.52;;;;;;;1.15;100.00;101709.94;5006143;28;20129;-67
2022/01/06 09:23:16;;;;;;;42.70;15.40;;;;;;;1.21;100.00;101714.75;4996405;28;20099;-67
2022/01/06 09:25:42;;;;;;;53.17;15.32;;;;;;;1.20;100.00;101712.25;4994065;28;20092;-67
2022/01/06 09:28:08;;;;;;;50.55;16.00;;;;;;;1.16;100.00;101709.81;5008189;28;20038;-67
2022/01/06 09:30:34;;;;;;;45.25;15.15;;;;;;;1.20;100.00;101707.13;5006484;28;20042;-66
2022/01/06 09:33:00;;;;;;;41.60;15.55;;;;;;;1.26;100.00;101712.81;5006533;28;20030;-67
2022/01/06 09:35:25;;;;;;;49.28;15.57;;;;;;;1.30;100.00;101711.75;5003450;28;20585;-67
2022/01/06 09:37:51;;;;;;;49.15;15.75;;;;;;;1.33;100.00;101714.13;5007444;28;20061;-67
2022/01/06 09:40:17;;;;;;;45.53;15.50;;;;;;;1.38;100.00;101713.13;5004739;28;20038;-67
2022/01/06 09:42:43;;;;;;;40.22;14.93;;;;;;;1.40;100.00;101709.56;4996114;28;20083;-67
2022/01/06 09:45:10;;;;;;;44.13;17.15;;;;;;;1.46;100.00;101721.22;5010572;28;20041;-67
2022/01/06 09:47:37;;;;;;;55.33;15.70;;;;;;;1.46;100.00;101727.16;4991983;28;20384;-67
2022/01/06 09:50:05;;;;;;;45.60;17.15;;;;;;;1.48;100.00;101721.97;5013813;28;20040;-67
2022/01/06 09:52:30;;;;;;;49.58;18.40;;;;;;;1.58;100.00;101728.28;5005563;28;20030;-67
2022/01/06 09:54:56;;;;;;;52.20;18.35;;;;;;;1.58;100.00;101723.16;4990412;28;20509;-67
2022/01/06 09:57:22;;;;;;;45.80;17.50;;;;;;;1.61;100.00;101729.88;4994939;28;20030;-66
2022/01/06 09:59:48;;;;;;;42.95;17.13;;;;;;;1.63;100.00;101728.06;5008050;28;20485;-67
2022/01/06 10:02:17;;;;;;;46.67;17.17;;;;;;;1.63;100.00;101728.91;5005939;28;20057;-67
2022/01/06 10:04:44;;;;;;;49.55;20.05;;;;;;;1.60;100.00;101731.63;5011212;28;20065;-67
2022/01/06 10:07:10;;;;;;;58.97;21.63;;;;;;;1.59;100.00;101734.25;5008412;28;21013;-67
2022/01/06 10:09:38;;;;;;;59.00;19.55;;;;;;;1.63;100.00;101739.13;5013247;28;20033;-68
2022/01/06 10:12:08;;;;;;;67.93;20.88;;;;;;;1.62;100.00;101737.47;5010191;28;20029;-67
2022/01/06 10:14:47;;;;;;;54.88;19.80;;;;;;;1.62;100.00;101732.38;5009264;28;20370;-67
2022/01/06 10:17:15;;;;;;;65.18;18.70;;;;;;;1.65;100.00;101731.38;5008895;28;20032;-68
2022/01/06 10:19:42;;;;;;;46.55;18.92;;;;;;;1.70;100.00;101734.53;5007012;28;20108;-68
2022/01/06 10:22:19;;;;;;;53.83;17.90;;;;;;;1.80;100.00;101732.34;5010099;28;20500;-67
2022/01/06 10:24:47;;;;;;;55.70;16.33;;;;;;;1.90;100.00;101734.38;5009954;28;20080;-67
2022/01/06 10:27:15;;;;;;;51.28;16.75;;;;;;;2.00;100.00;101727.06;5005856;28;20176;-67
2022/01/06 10:29:45;;;;;;;47.45;16.83;;;;;;;2.07;100.00;101725.84;5011170;28;20038;-67
2022/01/06 10:32:14;;;;;;;42.72;15.00;;;;;;;2.09;100.00;101721.50;5006046;28;20092;-67
2022/01/06 10:34:43;;;;;;;46.35;15.38;;;;;;;2.13;100.00;101714.47;5007776;28;20041;-67
2022/01/06 10:37:18;;;;;;;42.72;13.98;;;;;;;2.16;100.00;101723.72;5008637;28;20124;-67
2022/01/06 10:39:46;;;;;;;39.85;15.57;;;;;;;2.19;100.00;101728.69;4993666;28;20048;-67
2022/01/06 10:42:12;;;;;;;52.22;16.30;;;;;;;2.20;99.97;101717.53;4990036;28;20458;-67
2022/01/06 10:44:57;;;;;;;56.90;17.95;;;;;;;2.23;100.00;101717.38;5008068;28;20528;-67
2022/01/06 10:47:56;;;;;;;51.58;17.70;;;;;;;2.26;99.96;101723.19;5007230;28;20084;-67
2022/01/06 10:50:29;;;;;;;58.05;19.90;;;;;;;2.30;99.88;101719.56;4991894;28;20076;-67
2022/01/06 10:53:05;;;;;;;56.92;19.40;;;;;;;2.30;99.87;101721.28;4986438;28;20029;-67
2022/01/06 10:55:37;;;;;;;55.60;18.88;;;;;;;2.33;99.78;101721.94;5004965;28;20172;-68
2022/01/06 10:58:09;;;;;;;54.13;19.52;;;;;;;2.38;99.45;101719.16;5002137;28;20034;-67
2022/01/06 11:00:39;;;;;;;50.13;19.80;;;;;;;2.40;99.50;101714.78;5006820;28;20026;-67
2022/01/06 11:03:06;;;;;;;51.97;19.23;;;;;;;2.49;99.18;101714.28;5008638;28;20512;-67
2022/01/06 11:05:37;;;;;;;56.53;20.65;;;;;;;2.50;99.24;101710.81;5006661;28;20496;-67
2022/01/06 11:08:04;;;;;;;58.58;19.88;;;;;;;2.54;98.94;101711.47;4991015;28;20044;-67
2022/01/06 11:10:32;;;;;;;50.33;18.98;;;;;;;2.56;98.70;101708.84;5008049;28;20029;-67
2022/01/06 11:12:58;;;;;;;42.40;16.83;;;;;;;2.60;98.30;101712.88;5003786;28;20099;-67
2022/01/06 11:15:24;;;;;;;49.17;15.85;;;;;;;2.59;98.11;101712.06;5008002;28;20030;-67
2022/01/06 11:17:51;;;;;;;55.15;15.65;;;;;;;2.58;98.20;101718.09;5007394;28;20022;-67
2022/01/06 11:20:25;;;;;;;37.92;14.75;;;;;;;2.60;98.08;101723.97;5002176;28;20041;-67
2022/01/06 11:22:53;;;;;;;47.30;15.93;;;;;;;2.70;98.44;101721.75;5009572;28;20034;-67
2022/01/06 11:25:29;;;;;;;46.80;13.38;;;;;;;2.72;97.64;101709.66;5008642;28;20120;-67